createdAt,value
2018-10-16T00:00:18.812Z,10.03
2018-10-16T00:02:48.038Z,11.13
2018-10-16T00:05:17.819Z,11.30
2018-10-16T00:07:47.269Z,10.23
2018-10-16T00:10:21.216Z,11.73
2018-10-16T00:12:50.273Z,10.20
2018-10-16T00:15:20.290Z,10.07
2018-10-16T00:17:48.959Z,10.93
2018-10-16T00:20:17.816Z,11.17
2018-10-16T00:22:46.822Z,11.37
2018-10-16T00:25:17.264Z,10.50
2018-10-16T00:27:46.267Z,11.20
2018-10-16T00:30:15.250Z,11.53
2018-10-16T00:32:43.993Z,11.50
2018-10-16T00:35:12.599Z,13.17
2018-10-16T00:37:41.303Z,11.37
2018-10-16T00:40:10.733Z,12.37
2018-10-16T00:42:39.445Z,11.50
2018-10-16T00:45:09.713Z,12.67
2018-10-16T00:47:38.469Z,12.40
2018-10-16T00:50:07.186Z,12.40
2018-10-16T00:52:35.849Z,12.37
2018-10-16T00:55:05.341Z,12.50
2018-10-16T00:57:33.868Z,12.10
2018-10-16T01:00:02.616Z,12.57
2018-10-16T01:02:31.236Z,12.03
2018-10-16T01:04:59.971Z,12.20
2018-10-16T01:07:28.732Z,11.97
2018-10-16T01:09:57.616Z,12.97
2018-10-16T01:12:26.491Z,12.50
2018-10-16T01:14:55.674Z,12.63
2018-10-16T01:17:24.373Z,12.80
2018-10-16T01:19:53.211Z,12.03
2018-10-16T01:22:22.228Z,12.67
2018-10-16T01:24:51.167Z,12.50
2018-10-16T01:27:19.881Z,12.97
2018-10-16T01:29:48.836Z,13.17
2018-10-16T01:32:18.689Z,13.47
2018-10-16T01:34:47.609Z,14.10
2018-10-16T01:37:16.612Z,14.30
2018-10-16T01:39:45.208Z,13.53
2018-10-16T01:42:14.897Z,13.80
2018-10-16T01:44:43.448Z,13.70
2018-10-16T01:47:12.396Z,13.40
2018-10-16T01:49:41.128Z,13.67
2018-10-16T01:52:09.778Z,13.07
2018-10-16T01:54:38.392Z,13.83
2018-10-16T01:57:07.011Z,13.77
2018-10-16T01:59:35.703Z,13.80
2018-10-16T02:02:05.303Z,14.07
2018-10-16T02:04:34.399Z,13.40
2018-10-16T02:07:03.221Z,14.43
2018-10-16T02:09:31.963Z,13.53
2018-10-16T02:12:00.679Z,13.97
2018-10-16T02:14:29.552Z,13.30
2018-10-16T02:16:58.377Z,13.60
2018-10-16T02:19:26.999Z,13.53
2018-10-16T02:21:55.435Z,16.03
2018-10-16T02:24:24.206Z,14.10
2018-10-16T02:26:56.268Z,13.70
2018-10-16T02:31:58.353Z,14.43
2018-10-16T02:34:27.144Z,14.37
2018-10-16T02:36:55.791Z,14.27
2018-10-16T02:39:24.743Z,14.83
2018-10-16T02:44:29.884Z,14.37
2018-10-16T02:46:58.390Z,13.73
2018-10-16T02:49:26.940Z,13.47
2018-10-16T02:51:55.930Z,15.00
2018-10-16T02:54:24.739Z,14.20
2018-10-16T02:56:53.474Z,14.40
2018-10-16T02:59:22.215Z,14.27
2018-10-16T03:01:50.774Z,15.17
2018-10-16T03:04:19.308Z,15.13
2018-10-16T03:06:48.335Z,14.33
2018-10-16T03:09:17.138Z,15.07
2018-10-16T03:11:46.010Z,15.40
2018-10-16T03:14:14.736Z,14.37
2018-10-16T03:16:43.786Z,14.33
2018-10-16T03:19:12.719Z,15.30
2018-10-16T03:21:41.415Z,15.00
2018-10-16T03:24:10.306Z,15.60
2018-10-16T03:26:39.665Z,15.37
2018-10-16T03:29:09.361Z,14.23
2018-10-16T03:31:38.260Z,14.57
2018-10-16T03:34:07.270Z,14.07
2018-10-16T03:36:36.356Z,14.17
2018-10-16T03:39:07.236Z,14.20
2018-10-16T03:41:36.046Z,15.10
2018-10-16T03:44:09.767Z,15.33
2018-10-16T03:46:38.491Z,15.47
2018-10-16T03:49:07.367Z,15.33
2018-10-16T03:51:35.955Z,15.90
2018-10-16T03:54:04.544Z,15.37
2018-10-16T03:56:33.047Z,14.77
2018-10-16T03:59:01.648Z,16.20
2018-10-16T04:01:30.220Z,15.70
2018-10-16T04:03:58.802Z,16.13
2018-10-16T04:06:27.479Z,18.53
2018-10-16T04:08:56.173Z,15.43
2018-10-16T04:11:24.582Z,16.70
2018-10-16T04:13:52.990Z,16.37
2018-10-16T04:16:21.364Z,15.47
2018-10-16T04:18:49.721Z,15.00
2018-10-16T04:21:18.118Z,15.50
2018-10-16T04:23:46.475Z,15.47
2018-10-16T04:26:14.885Z,16.93
2018-10-16T04:28:43.266Z,15.60
2018-10-16T04:31:11.890Z,14.80
2018-10-16T04:33:40.452Z,15.70
2018-10-16T04:36:08.852Z,14.83
2018-10-16T04:38:37.270Z,16.77
2018-10-16T04:41:05.725Z,14.10
2018-10-16T04:43:34.182Z,16.33
2018-10-16T04:46:02.547Z,15.83
2018-10-16T04:48:30.946Z,15.23
2018-10-16T04:50:59.299Z,15.47
2018-10-16T04:53:27.738Z,16.47
2018-10-16T04:55:56.105Z,15.63
2018-10-16T04:58:24.524Z,16.30
2018-10-16T05:00:52.916Z,15.53
2018-10-16T05:03:21.320Z,16.07
2018-10-16T05:05:49.721Z,16.60
2018-10-16T05:08:18.150Z,16.07
2018-10-16T05:10:46.530Z,16.93
2018-10-16T05:13:14.991Z,16.40
2018-10-16T05:15:43.351Z,15.00
2018-10-16T05:18:12.681Z,16.17
2018-10-16T05:20:41.731Z,16.10
2018-10-16T05:23:10.159Z,15.47
2018-10-16T05:25:39.916Z,15.80
2018-10-16T05:28:08.335Z,14.60
2018-10-16T05:30:36.747Z,15.50
2018-10-16T05:33:05.322Z,15.67
2018-10-16T05:35:33.793Z,16.03
2018-10-16T05:38:02.226Z,16.20
2018-10-16T05:40:30.622Z,16.23
2018-10-16T05:42:59.142Z,15.90
2018-10-16T05:45:29.042Z,15.70
2018-10-16T05:47:58.094Z,15.97
2018-10-16T05:50:26.478Z,16.07
2018-10-16T05:52:54.865Z,16.00
2018-10-16T05:55:23.344Z,17.30
2018-10-16T05:57:51.747Z,16.27
2018-10-16T06:00:42.896Z,16.43
2018-10-16T06:03:11.686Z,17.47
2018-10-16T06:05:40.258Z,15.40
2018-10-16T06:08:08.871Z,15.60
2018-10-16T06:10:37.953Z,14.70
2018-10-16T06:13:06.454Z,15.10
2018-10-16T06:15:34.850Z,15.70
2018-10-16T06:18:03.255Z,14.97
2018-10-16T06:20:31.754Z,14.53
2018-10-16T06:23:00.232Z,15.03
2018-10-16T06:25:28.686Z,15.20
2018-10-16T06:27:57.129Z,15.53
2018-10-16T06:30:25.641Z,15.43
2018-10-16T06:32:53.998Z,15.50
2018-10-16T06:35:22.399Z,15.30
2018-10-16T06:37:50.762Z,16.63
2018-10-16T06:40:19.387Z,17.67
2018-10-16T06:42:47.830Z,16.90
2018-10-16T06:45:16.283Z,17.93
2018-10-16T06:47:44.870Z,16.00
2018-10-16T06:50:13.223Z,16.90
2018-10-16T06:52:41.689Z,16.87
2018-10-16T06:55:10.971Z,17.03
2018-10-16T06:57:39.313Z,17.13
2018-10-16T07:00:08.490Z,17.20
2018-10-16T07:02:36.822Z,18.63
2018-10-16T07:05:06.499Z,17.43
2018-10-16T07:07:35.258Z,17.47
2018-10-16T07:10:04.067Z,17.67
2018-10-16T07:12:32.482Z,17.93
2018-10-16T07:15:01.297Z,18.33
2018-10-16T07:17:29.635Z,18.23
2018-10-16T07:19:58.110Z,17.93
2018-10-16T07:22:26.515Z,20.90
2018-10-16T07:24:55.139Z,17.83
2018-10-16T07:27:24.210Z,18.63
2018-10-16T07:29:52.682Z,17.87
2018-10-16T07:32:21.110Z,18.33
2018-10-16T07:34:49.570Z,18.47
2018-10-16T07:37:18.056Z,19.00
2018-10-16T07:39:46.509Z,17.97
2018-10-16T07:42:15.015Z,18.60
2018-10-16T07:44:43.466Z,18.67
2018-10-16T07:47:11.894Z,17.87
2018-10-16T07:49:40.338Z,18.33
2018-10-16T07:52:08.715Z,18.17
2018-10-16T07:54:37.160Z,17.87
2018-10-16T07:57:05.969Z,19.23
2018-10-16T07:59:35.390Z,18.67
2018-10-16T08:02:03.859Z,19.83
2018-10-16T08:04:32.250Z,19.17
2018-10-16T08:07:00.718Z,19.70
2018-10-16T08:09:29.157Z,20.17
2018-10-16T08:11:58.727Z,19.37
2018-10-16T08:14:27.187Z,20.83
2018-10-16T08:16:55.898Z,20.33
2018-10-16T08:19:24.546Z,19.23
2018-10-16T08:21:52.990Z,21.23
2018-10-16T08:24:21.604Z,21.17
2018-10-16T08:26:50.103Z,21.17
2018-10-16T08:29:18.510Z,20.37
2018-10-16T08:31:46.909Z,21.57
2018-10-16T08:34:15.507Z,22.33
2018-10-16T08:36:44.060Z,22.90
2018-10-16T08:39:22.519Z,23.60
2018-10-16T08:44:08.568Z,22.23
2018-10-16T08:46:48.077Z,24.47
2018-10-16T08:49:27.786Z,24.23
2018-10-16T08:51:57.350Z,23.43
2018-10-16T08:54:25.854Z,24.93
2018-10-16T08:56:54.317Z,24.10
2018-10-16T08:59:22.830Z,26.67
2018-10-16T09:01:51.288Z,25.70
2018-10-16T09:04:19.753Z,26.67
2018-10-16T09:06:48.217Z,25.00
2018-10-16T09:09:18.115Z,26.07
2018-10-16T09:11:47.832Z,26.63
2018-10-16T09:14:16.776Z,26.80
2018-10-16T09:16:45.290Z,26.67
2018-10-16T09:19:13.807Z,26.93
2018-10-16T09:21:42.262Z,27.43
2018-10-16T09:24:10.984Z,25.80
2018-10-16T09:26:39.870Z,27.13
2018-10-16T09:29:08.439Z,25.50
2018-10-16T09:31:36.923Z,28.50
2018-10-16T09:34:05.558Z,26.87
2018-10-16T09:36:34.340Z,26.47
2018-10-16T09:39:02.906Z,25.87
2018-10-16T09:41:31.371Z,26.53
2018-10-16T09:43:59.930Z,27.40
2018-10-16T09:46:28.330Z,26.23
2018-10-16T09:48:56.811Z,27.07
2018-10-16T09:51:25.258Z,26.70
2018-10-16T09:53:53.733Z,27.80
2018-10-16T09:56:22.145Z,26.43
2018-10-16T09:58:50.566Z,26.50
2018-10-16T10:01:24.230Z,26.97
2018-10-16T10:03:52.682Z,25.70
2018-10-16T10:06:21.204Z,28.97
2018-10-16T10:08:49.619Z,26.87
2018-10-16T10:11:18.030Z,27.50
2018-10-16T10:13:46.499Z,26.53
2018-10-16T10:16:14.900Z,28.00
2018-10-16T10:18:43.317Z,28.30
2018-10-16T10:21:11.746Z,28.83
2018-10-16T10:23:40.143Z,27.90
2018-10-16T10:26:08.542Z,28.05
2018-10-16T10:28:36.964Z,29.17
2018-10-16T10:31:05.779Z,31.20
2018-10-16T10:33:34.224Z,30.23
2018-10-16T10:36:02.770Z,29.40
2018-10-16T10:38:31.174Z,27.77
2018-10-16T10:40:59.580Z,28.65
2018-10-16T10:43:28.051Z,29.93
2018-10-16T10:45:56.488Z,30.48
2018-10-16T10:48:24.892Z,29.73
2018-10-16T10:50:53.446Z,30.67
2018-10-16T10:53:21.801Z,29.33
2018-10-16T10:55:50.763Z,29.93
2018-10-16T10:58:19.201Z,28.80
2018-10-16T11:00:47.628Z,29.37
2018-10-16T11:03:16.188Z,30.87
2018-10-16T11:05:44.604Z,29.47
2018-10-16T11:08:13.022Z,29.37
2018-10-16T11:10:41.426Z,30.85
2018-10-16T11:13:09.898Z,29.57
2018-10-16T11:15:38.311Z,31.07
2018-10-16T11:18:06.828Z,29.63
2018-10-16T11:20:35.226Z,29.87
2018-10-16T11:23:03.706Z,30.55
2018-10-16T11:25:32.236Z,32.23
2018-10-16T11:28:00.715Z,29.83
2018-10-16T11:30:29.313Z,30.75
2018-10-16T11:32:57.765Z,29.77
2018-10-16T11:35:26.254Z,30.23
2018-10-16T11:37:54.680Z,30.90
2018-10-16T11:40:23.121Z,29.10
2018-10-16T11:42:51.553Z,29.80
2018-10-16T11:45:19.974Z,28.52
2018-10-16T11:47:48.475Z,27.85
2018-10-16T11:50:17.003Z,26.93
2018-10-16T11:52:45.343Z,26.25
2018-10-16T11:55:14.038Z,26.12
2018-10-16T11:57:42.482Z,26.85
2018-10-16T12:00:14.774Z,26.02
2018-10-16T12:02:43.418Z,25.12
2018-10-16T12:05:12.045Z,24.18
2018-10-16T12:07:40.565Z,24.10
2018-10-16T12:10:08.994Z,24.02
2018-10-16T12:12:37.459Z,23.27
2018-10-16T12:15:06.948Z,23.38
2018-10-16T12:17:43.698Z,22.62
2018-10-16T12:20:17.778Z,21.97
2018-10-16T12:22:46.282Z,21.30
2018-10-16T12:25:14.943Z,21.30
2018-10-16T12:27:43.520Z,20.72
2018-10-16T12:30:12.148Z,19.17
2018-10-16T12:32:40.621Z,19.23
2018-10-16T12:35:09.027Z,18.40
2018-10-16T12:37:37.682Z,16.73
2018-10-16T12:40:06.976Z,18.82
2018-10-16T12:42:35.372Z,16.17
2018-10-16T12:45:03.863Z,15.43
2018-10-16T12:47:32.398Z,17.40
2018-10-16T12:50:00.932Z,14.20
2018-10-16T12:52:29.315Z,14.23
2018-10-16T12:54:57.734Z,13.50
2018-10-16T12:57:26.229Z,13.78
2018-10-16T12:59:54.653Z,13.10
2018-10-16T13:02:23.081Z,12.63
2018-10-16T13:04:51.491Z,11.45
2018-10-16T13:07:25.415Z,19.45
2018-10-16T13:09:53.867Z,10.48
2018-10-16T13:12:22.421Z,8.90
2018-10-16T13:14:50.852Z,9.35
2018-10-16T13:17:19.393Z,10.35
2018-10-16T13:19:47.922Z,9.43
2018-10-16T13:22:16.319Z,9.18
2018-10-16T13:24:44.780Z,11.48
2018-10-16T13:27:13.187Z,14.28
2018-10-16T13:29:41.687Z,11.65
2018-10-16T13:32:10.160Z,8.55
2018-10-16T13:34:38.612Z,7.75
2018-10-16T13:37:07.090Z,8.10
2018-10-16T13:39:35.516Z,8.83
2018-10-16T13:42:04.039Z,8.43
2018-10-16T13:44:32.568Z,7.08
2018-10-16T13:47:01.048Z,7.03
2018-10-16T13:49:29.477Z,7.10
2018-10-16T13:51:57.980Z,7.67
2018-10-16T13:54:26.394Z,7.00
2018-10-16T13:56:54.879Z,7.20
2018-10-16T13:59:23.273Z,8.33
2018-10-16T14:01:51.700Z,15.15
2018-10-16T14:04:20.119Z,9.85
2018-10-16T14:06:48.586Z,10.65
2018-10-16T14:09:17.407Z,6.90
2018-10-16T14:11:45.875Z,7.35
2018-10-16T14:14:14.387Z,7.08
2018-10-16T14:16:42.790Z,7.12
2018-10-16T14:19:11.182Z,7.10
2018-10-16T14:21:39.739Z,7.00
2018-10-16T14:24:08.199Z,6.92
2018-10-16T14:26:36.693Z,6.83
2018-10-16T14:29:05.755Z,6.55
2018-10-16T14:31:34.139Z,6.53
2018-10-16T14:34:02.610Z,7.22
2018-10-16T14:36:31.030Z,7.00
2018-10-16T14:38:59.459Z,7.10
2018-10-16T14:41:27.954Z,7.15
2018-10-16T14:43:56.472Z,6.03
2018-10-16T14:46:24.884Z,6.17
2018-10-16T14:48:53.338Z,7.20
2018-10-16T14:51:21.810Z,7.10
2018-10-16T14:53:50.280Z,6.53
2018-10-16T14:56:18.744Z,6.10
2018-10-16T14:58:47.214Z,8.65
2018-10-16T15:01:15.775Z,6.65
2018-10-16T15:03:44.197Z,5.92
2018-10-16T15:06:12.744Z,7.53
2018-10-16T15:08:41.165Z,6.17
2018-10-16T15:11:09.631Z,6.10
2018-10-16T15:13:38.222Z,6.50
2018-10-16T15:16:07.241Z,6.35
2018-10-16T15:18:35.757Z,7.37
2018-10-16T15:21:04.185Z,7.10
2018-10-16T15:23:32.673Z,7.22
2018-10-16T15:26:01.038Z,7.72
2018-10-16T15:28:29.469Z,7.83
2018-10-16T15:30:58.130Z,6.92
2018-10-16T15:33:26.558Z,7.78
2018-10-16T15:35:55.052Z,10.65
2018-10-16T15:38:23.467Z,7.45
2018-10-16T15:40:51.902Z,6.92
2018-10-16T15:43:20.399Z,9.65
2018-10-16T15:45:48.886Z,8.03
2018-10-16T15:48:17.321Z,22.50
2018-10-16T15:50:45.767Z,11.05
2018-10-16T15:53:14.335Z,13.32
2018-10-16T15:55:42.817Z,15.08
2018-10-16T15:58:11.288Z,18.42
2018-10-16T16:00:39.630Z,31.95
2018-10-16T16:03:08.051Z,35.08
2018-10-16T16:05:36.500Z,50.38
2018-10-16T16:08:05.352Z,36.23
2018-10-16T16:10:33.751Z,32.13
2018-10-16T16:13:06.382Z,12.10
2018-10-16T16:15:34.795Z,8.15
2018-10-16T16:18:03.303Z,12.50
2018-10-16T16:20:31.643Z,15.38
2018-10-16T16:23:00.056Z,13.62
2018-10-16T16:25:28.457Z,7.90
2018-10-16T16:27:57.004Z,12.50
2018-10-16T16:30:25.394Z,11.22
2018-10-16T16:32:53.780Z,9.88
2018-10-16T16:35:22.226Z,11.22
2018-10-16T16:37:50.711Z,11.70
2018-10-16T16:40:19.669Z,11.80
2018-10-16T16:42:48.094Z,22.82
2018-10-16T16:45:16.496Z,35.98
2018-10-16T16:47:44.913Z,45.75
2018-10-16T16:50:13.496Z,32.00
2018-10-16T16:52:42.562Z,35.30
2018-10-16T16:55:13.640Z,38.02
2018-10-16T16:57:42.169Z,20.17
2018-10-16T17:00:11.824Z,42.00
2018-10-16T17:02:40.882Z,25.72
2018-10-16T17:05:10.078Z,24.27
2018-10-16T17:07:38.530Z,17.87
2018-10-16T17:10:07.859Z,20.12
2018-10-16T17:12:36.630Z,13.60
2018-10-16T17:15:06.887Z,11.33
2018-10-16T17:17:35.769Z,42.88
2018-10-16T17:20:04.415Z,31.00
2018-10-16T17:22:32.850Z,21.07
2018-10-16T17:25:01.327Z,24.40
2018-10-16T17:27:29.730Z,45.00
2018-10-16T17:29:59.163Z,60.17
2018-10-16T17:32:27.613Z,37.40
2018-10-16T17:34:56.113Z,27.35
2018-10-16T17:37:24.675Z,27.55
2018-10-16T17:39:53.259Z,23.43
2018-10-16T17:42:21.718Z,18.57
2018-10-16T17:44:50.203Z,18.95
2018-10-16T17:47:18.673Z,17.20
2018-10-16T17:49:47.058Z,11.38
2018-10-16T17:52:15.596Z,12.30
2018-10-16T17:54:44.198Z,8.63
2018-10-16T17:57:12.638Z,6.80
2018-10-16T17:59:41.047Z,8.18
2018-10-16T18:02:09.483Z,8.40
2018-10-16T18:04:38.021Z,8.73
2018-10-16T18:07:06.661Z,8.50
2018-10-16T18:09:35.061Z,7.97
2018-10-16T18:12:03.623Z,10.70
2018-10-16T18:14:32.022Z,8.37
2018-10-16T18:17:00.824Z,8.20
2018-10-16T18:19:29.298Z,10.20
2018-10-16T18:21:57.823Z,9.10
2018-10-16T18:24:26.192Z,9.70
2018-10-16T18:26:54.645Z,8.70
2018-10-16T18:29:23.006Z,9.60
2018-10-16T18:31:51.402Z,10.73
2018-10-16T18:34:19.821Z,9.47
2018-10-16T18:36:48.211Z,9.50
2018-10-16T18:39:17.033Z,8.90
2018-10-16T18:41:45.483Z,12.47
2018-10-16T18:44:13.890Z,11.13
2018-10-16T18:46:42.381Z,8.57
2018-10-16T18:49:10.790Z,9.20
2018-10-16T18:51:39.272Z,9.60
2018-10-16T18:54:07.694Z,9.33
2018-10-16T18:56:36.120Z,9.47
2018-10-16T18:59:04.494Z,8.93
2018-10-16T19:01:32.968Z,9.50
2018-10-16T19:04:01.558Z,9.87
2018-10-16T19:06:30.020Z,11.90
2018-10-16T19:08:58.449Z,22.60
2018-10-16T19:11:26.814Z,23.38
2018-10-16T19:13:55.295Z,22.97
2018-10-16T19:16:24.025Z,25.93
2018-10-16T19:18:52.410Z,21.07
2018-10-16T19:21:20.834Z,17.57
2018-10-16T19:23:49.246Z,31.40
2018-10-16T19:26:17.691Z,26.57
2018-10-16T19:28:46.186Z,20.57
2018-10-16T19:31:14.607Z,28.73
2018-10-16T19:33:43.084Z,36.83
2018-10-16T19:36:11.660Z,43.63
2018-10-16T19:38:40.142Z,28.70
2018-10-16T19:41:08.586Z,17.83
2018-10-16T19:43:37.094Z,17.57
2018-10-16T19:46:05.966Z,16.77
2018-10-16T19:48:34.451Z,13.67
2018-10-16T19:51:02.997Z,12.03
2018-10-16T19:53:31.538Z,12.17
2018-10-16T19:56:00.124Z,11.73
2018-10-16T19:58:28.737Z,11.20
2018-10-16T20:00:57.407Z,11.70
2018-10-16T20:03:28.717Z,11.17
2018-10-16T20:05:57.395Z,11.97
2018-10-16T20:08:26.106Z,11.67
2018-10-16T20:10:54.543Z,12.13
2018-10-16T20:13:23.084Z,11.27
2018-10-16T20:15:51.682Z,12.37
2018-10-16T20:18:20.386Z,21.27
2018-10-16T20:20:48.855Z,14.50
2018-10-16T20:23:17.396Z,12.13
2018-10-16T20:25:46.097Z,13.00
2018-10-16T20:28:14.526Z,13.27
2018-10-16T20:30:42.902Z,13.37
2018-10-16T20:33:11.311Z,11.13
2018-10-16T20:35:39.758Z,12.90
2018-10-16T20:38:08.220Z,12.83
2018-10-16T20:40:36.581Z,13.00
2018-10-16T20:43:05.324Z,13.70
2018-10-16T20:45:33.732Z,13.77
2018-10-16T20:48:02.188Z,13.13
2018-10-16T20:50:30.664Z,14.57
2018-10-16T20:52:59.234Z,13.23
2018-10-16T20:55:27.959Z,12.67
2018-10-16T20:57:56.523Z,14.20
2018-10-16T21:00:24.977Z,14.80
2018-10-16T21:02:56.598Z,14.60
2018-10-16T21:05:25.306Z,14.53
2018-10-16T21:07:53.644Z,16.50
2018-10-16T21:10:22.142Z,17.73
2018-10-16T21:12:50.621Z,14.57
2018-10-16T21:15:19.126Z,14.40
2018-10-16T21:17:47.728Z,19.37
2018-10-16T21:20:16.418Z,17.37
2018-10-16T21:22:45.384Z,16.73
2018-10-16T21:25:14.003Z,16.90
2018-10-16T21:27:42.412Z,15.13
2018-10-16T21:30:10.866Z,16.23
2018-10-16T21:32:39.346Z,13.07
2018-10-16T21:35:07.912Z,12.03
2018-10-16T21:37:36.261Z,12.67
2018-10-16T21:40:05.278Z,13.17
2018-10-16T21:42:33.823Z,12.57
2018-10-16T21:45:02.277Z,12.30
2018-10-16T21:47:30.682Z,13.27
2018-10-16T21:49:59.174Z,13.13
2018-10-16T21:52:27.656Z,12.23
2018-10-16T21:54:56.087Z,14.37
2018-10-16T21:57:24.550Z,12.97
2018-10-16T21:59:58.552Z,12.50
2018-10-16T22:02:32.242Z,12.27
2018-10-16T22:05:00.841Z,13.47
2018-10-16T22:07:29.168Z,13.43
2018-10-16T22:09:57.707Z,12.90
2018-10-16T22:12:26.118Z,14.40
2018-10-16T22:14:54.513Z,14.60
2018-10-16T22:17:22.890Z,14.17
2018-10-16T22:19:51.305Z,12.37
2018-10-16T22:22:19.707Z,18.53
2018-10-16T22:24:48.132Z,13.30
2018-10-16T22:27:16.564Z,15.17
2018-10-16T22:29:45.007Z,16.67
2018-10-16T22:32:13.490Z,15.17
2018-10-16T22:34:41.907Z,15.03
2018-10-16T22:37:10.405Z,20.10
2018-10-16T22:39:38.733Z,17.47
2018-10-16T22:42:07.316Z,17.20
2018-10-16T22:44:35.758Z,13.97
2018-10-16T22:47:04.195Z,13.93
2018-10-16T22:49:32.570Z,14.07
2018-10-16T22:52:01.010Z,16.97
2018-10-16T22:54:29.424Z,17.30
2018-10-16T22:56:57.807Z,17.83
2018-10-16T22:59:26.233Z,21.33
2018-10-16T23:01:54.618Z,17.17
2018-10-16T23:04:23.046Z,32.57
2018-10-16T23:06:51.445Z,16.20
2018-10-16T23:09:19.817Z,15.93
2018-10-16T23:11:48.234Z,15.27
2018-10-16T23:14:16.626Z,20.27
2018-10-16T23:16:45.137Z,16.50
2018-10-16T23:19:13.569Z,16.47
2018-10-16T23:21:41.945Z,19.57
2018-10-16T23:24:10.358Z,18.27
2018-10-16T23:26:39.042Z,17.73
2018-10-16T23:29:07.499Z,18.30
2018-10-16T23:31:35.848Z,16.43
2018-10-16T23:34:04.321Z,16.10
2018-10-16T23:36:33.120Z,17.37
2018-10-16T23:39:01.521Z,16.70
2018-10-16T23:41:29.926Z,15.83
2018-10-16T23:43:58.325Z,15.30
2018-10-16T23:46:26.845Z,16.03
2018-10-16T23:48:55.234Z,16.43
2018-10-16T23:51:23.712Z,23.43
2018-10-16T23:53:52.090Z,19.53
2018-10-16T23:56:20.486Z,16.80
2018-10-16T23:58:48.851Z,15.90
